Terminal Aerodrome Forecast
Issued by NWS

Home | Current Version | Previous Version | Text Only | Print | Product List | Glossary On
Versions: 1 2 3 4 5 6 7 8 9 10 11 12 13 14
000
FTUS42 KTBW 300100 AAA
TAFLAL
TAF AMD
KLAL 300101Z 3001/3024 VRB04KT P6SM VCTS SCT035CB BKN070
      TEMPO 3001/3002 VRB10G15KT 3SM TSRA BKN035CB
     FM300200 VRB04KT P6SM BKN200
     FM301500 14005KT P6SM SCT035
     FM302000 15005KT P6SM VCTS BKN050CB
      AMD NOT SKED 3003/3012=

USA.gov is the U.S. government's official web portal to all federal, state and local government web resources and services.